createdAt,value
2022-11-22T00:00:15.321Z,3.30
2022-11-22T00:01:15.338Z,3.10
2022-11-22T00:02:15.459Z,2.90
2022-11-22T00:03:15.368Z,3.00
2022-11-22T00:04:15.382Z,3.10
2022-11-22T00:05:15.402Z,2.90
2022-11-22T00:06:15.417Z,3.00
2022-11-22T00:07:15.486Z,3.20
2022-11-22T00:08:15.448Z,3.10
2022-11-22T00:09:15.486Z,3.10
2022-11-22T00:10:15.492Z,3.00
2022-11-22T00:11:15.499Z,3.00
2022-11-22T00:12:15.516Z,3.20
2022-11-22T00:13:15.530Z,3.20
2022-11-22T00:14:15.549Z,2.90
2022-11-22T00:15:15.568Z,3.10
2022-11-22T00:16:15.584Z,3.10
2022-11-22T00:17:15.595Z,3.20
2022-11-22T00:18:15.609Z,3.20
2022-11-22T00:19:15.628Z,3.00
2022-11-22T00:20:15.645Z,2.80
2022-11-22T00:21:15.659Z,3.10
2022-11-22T00:22:15.680Z,2.90
2022-11-22T00:23:15.691Z,3.00
2022-11-22T00:24:15.712Z,3.10
2022-11-22T00:25:15.748Z,3.10
2022-11-22T00:26:15.744Z,3.00
2022-11-22T00:27:15.765Z,3.00
2022-11-22T00:28:15.776Z,3.30
2022-11-22T00:29:15.794Z,2.90
2022-11-22T00:30:15.810Z,3.30
2022-11-22T00:31:15.824Z,2.90
2022-11-22T00:32:15.844Z,3.30
2022-11-22T00:33:15.867Z,3.30
2022-11-22T00:34:15.871Z,3.30
2022-11-22T00:35:15.888Z,2.90
2022-11-22T00:36:15.909Z,3.00
2022-11-22T00:37:15.923Z,3.20
2022-11-22T00:38:15.942Z,2.80
2022-11-22T00:39:15.957Z,2.90
2022-11-22T00:40:15.974Z,3.10
2022-11-22T00:41:16.006Z,3.00
2022-11-22T00:42:16.001Z,3.10
2022-11-22T00:43:16.020Z,3.00
2022-11-22T00:44:16.038Z,3.00
2022-11-22T00:45:16.055Z,3.20
2022-11-22T00:46:16.068Z,3.10
2022-11-22T00:47:16.089Z,3.10
2022-11-22T00:48:16.102Z,3.10
2022-11-22T00:49:16.119Z,3.20
2022-11-22T00:50:16.133Z,3.20
2022-11-22T00:51:16.153Z,2.90
2022-11-22T00:52:16.170Z,3.30
2022-11-22T00:53:16.182Z,3.00
2022-11-22T00:54:16.196Z,2.80
2022-11-22T00:55:16.216Z,2.90
2022-11-22T00:56:16.231Z,3.20
2022-11-22T00:57:16.274Z,3.40
2022-11-22T00:58:16.262Z,3.20
2022-11-22T00:59:16.484Z,2.90
2022-11-22T01:00:16.298Z,3.30
2022-11-22T01:01:16.429Z,3.40
2022-11-22T01:02:16.328Z,3.20
2022-11-22T01:03:16.345Z,3.20
2022-11-22T01:04:16.365Z,3.20
2022-11-22T01:05:16.378Z,3.20
2022-11-22T01:06:16.394Z,3.10
2022-11-22T01:07:16.495Z,2.90
2022-11-22T01:08:16.425Z,3.30
2022-11-22T01:09:16.446Z,3.20
2022-11-22T01:10:16.460Z,3.10
2022-11-22T01:11:16.475Z,3.00
2022-11-22T01:12:16.491Z,3.10
2022-11-22T01:13:16.528Z,3.30
2022-11-22T01:14:16.529Z,3.20
2022-11-22T01:15:16.544Z,3.20
2022-11-22T01:16:16.558Z,3.20
2022-11-22T01:17:16.572Z,3.30
2022-11-22T01:18:16.588Z,3.30
2022-11-22T01:19:16.609Z,3.10
2022-11-22T01:20:16.625Z,2.90
2022-11-22T01:21:16.637Z,3.20
2022-11-22T01:22:16.655Z,3.00
2022-11-22T01:23:16.669Z,2.80
2022-11-22T01:24:16.690Z,3.00
2022-11-22T01:25:16.704Z,3.30
2022-11-22T01:26:16.717Z,3.00
2022-11-22T01:27:16.735Z,3.10
2022-11-22T01:28:16.758Z,3.00
2022-11-22T01:29:16.813Z,3.10
2022-11-22T01:30:16.784Z,3.10
2022-11-22T01:31:16.801Z,3.20
2022-11-22T01:32:16.820Z,3.30
2022-11-22T01:33:16.836Z,3.10
2022-11-22T01:34:16.853Z,3.00
2022-11-22T01:35:16.872Z,3.20
2022-11-22T01:36:16.883Z,3.20
2022-11-22T01:37:16.900Z,3.00
2022-11-22T01:38:16.915Z,3.10
2022-11-22T01:39:16.931Z,3.10
2022-11-22T01:40:16.945Z,2.90
2022-11-22T01:41:16.961Z,2.90
2022-11-22T01:42:16.978Z,3.10
2022-11-22T01:43:17.003Z,3.00
2022-11-22T01:44:17.010Z,3.10
2022-11-22T01:45:17.049Z,2.90
2022-11-22T01:46:17.048Z,3.00
2022-11-22T01:47:17.058Z,3.00
2022-11-22T01:48:17.077Z,3.20
2022-11-22T01:49:17.091Z,2.90
2022-11-22T01:50:17.110Z,2.90
2022-11-22T01:51:17.126Z,3.00
2022-11-22T01:52:17.142Z,2.90
2022-11-22T01:53:17.155Z,2.80
2022-11-22T01:54:17.175Z,2.90
2022-11-22T01:55:17.187Z,3.10
2022-11-22T01:56:17.206Z,3.00
2022-11-22T01:57:17.223Z,2.90
2022-11-22T01:58:17.238Z,3.00
2022-11-22T01:59:17.255Z,3.10
2022-11-22T02:00:17.267Z,3.00
2022-11-22T02:01:17.365Z,3.10
2022-11-22T02:02:17.312Z,3.10
2022-11-22T02:03:17.317Z,3.20
2022-11-22T02:04:17.334Z,3.20
2022-11-22T02:05:17.350Z,3.00
2022-11-22T02:06:17.371Z,2.90
2022-11-22T02:07:17.418Z,3.10
2022-11-22T02:08:17.400Z,2.90
2022-11-22T02:09:17.415Z,2.90
2022-11-22T02:10:17.428Z,3.00
2022-11-22T02:11:17.446Z,2.90
2022-11-22T02:12:17.465Z,3.10
2022-11-22T02:13:17.477Z,3.30
2022-11-22T02:14:17.492Z,3.20
2022-11-22T02:15:17.508Z,3.20
2022-11-22T02:16:17.524Z,3.00
2022-11-22T02:17:17.562Z,2.90
2022-11-22T02:18:17.558Z,3.10
2022-11-22T02:19:17.574Z,3.10
2022-11-22T02:20:17.589Z,3.20
2022-11-22T02:21:17.605Z,3.10
2022-11-22T02:22:17.624Z,2.80
2022-11-22T02:23:17.637Z,2.90
2022-11-22T02:24:17.666Z,2.90
2022-11-22T02:25:17.670Z,3.10
2022-11-22T02:26:17.684Z,3.00
2022-11-22T02:27:17.704Z,3.20
2022-11-22T02:28:17.721Z,3.20
2022-11-22T02:29:17.739Z,3.00
2022-11-22T02:30:17.752Z,2.90
2022-11-22T02:31:17.768Z,2.90
2022-11-22T02:32:17.786Z,2.90
2022-11-22T02:33:17.817Z,2.90
2022-11-22T02:34:17.818Z,3.30
2022-11-22T02:35:17.832Z,2.90
2022-11-22T02:36:17.846Z,2.90
2022-11-22T02:37:17.865Z,3.10
2022-11-22T02:38:17.882Z,2.80
2022-11-22T02:39:17.894Z,2.90
2022-11-22T02:40:17.919Z,2.90
2022-11-22T02:41:17.928Z,3.10
2022-11-22T02:42:17.944Z,3.00
2022-11-22T02:43:17.961Z,2.90
2022-11-22T02:44:17.975Z,3.20
2022-11-22T02:45:17.990Z,2.80
2022-11-22T02:46:18.006Z,3.00
2022-11-22T02:47:18.026Z,2.80
2022-11-22T02:48:18.039Z,3.10
2022-11-22T02:49:18.073Z,2.80
2022-11-22T02:50:18.068Z,3.10
2022-11-22T02:51:18.087Z,3.00
2022-11-22T02:52:18.102Z,3.00
2022-11-22T02:53:18.120Z,2.80
2022-11-22T02:54:18.132Z,2.90
2022-11-22T02:55:18.152Z,3.00
2022-11-22T02:56:18.167Z,2.90
2022-11-22T02:57:18.183Z,3.00
2022-11-22T02:58:18.198Z,2.90
2022-11-22T02:59:18.212Z,2.90
2022-11-22T03:00:18.234Z,2.80
2022-11-22T03:01:18.314Z,3.10
2022-11-22T03:02:18.263Z,3.20
2022-11-22T03:03:18.284Z,3.10
2022-11-22T03:04:18.292Z,3.20
2022-11-22T03:05:18.330Z,3.20
2022-11-22T03:06:18.325Z,3.10
2022-11-22T03:07:18.458Z,3.10
2022-11-22T03:08:18.359Z,3.00
2022-11-22T03:09:18.378Z,3.10
2022-11-22T03:10:18.387Z,3.10
2022-11-22T03:11:18.403Z,2.90
2022-11-22T03:12:18.422Z,3.20
2022-11-22T03:13:18.438Z,3.00
2022-11-22T03:14:18.456Z,3.00
2022-11-22T03:15:18.474Z,3.20
2022-11-22T03:16:18.518Z,3.20
2022-11-22T03:17:18.501Z,3.00
2022-11-22T03:18:18.519Z,3.10
2022-11-22T03:19:18.535Z,3.20
2022-11-22T03:20:18.553Z,3.10
2022-11-22T03:21:18.583Z,3.10
2022-11-22T03:22:18.584Z,3.10
2022-11-22T03:23:18.599Z,3.30
2022-11-22T03:24:18.613Z,3.30
2022-11-22T03:25:18.630Z,3.00
2022-11-22T03:26:18.645Z,3.40
2022-11-22T03:27:18.659Z,3.10
2022-11-22T03:28:18.676Z,3.10
2022-11-22T03:29:18.697Z,3.40
2022-11-22T03:30:18.706Z,3.40
2022-11-22T03:31:18.729Z,3.00
2022-11-22T03:32:18.738Z,3.00
2022-11-22T03:33:18.757Z,3.30
2022-11-22T03:34:18.771Z,3.40
2022-11-22T03:35:18.790Z,3.20
2022-11-22T03:36:18.804Z,3.30
2022-11-22T03:37:18.837Z,3.40
2022-11-22T03:38:18.834Z,3.10
2022-11-22T03:39:18.853Z,3.30
2022-11-22T03:40:18.878Z,3.20
2022-11-22T03:41:18.884Z,3.30
2022-11-22T03:42:21.821Z,3.40
2022-11-22T03:43:18.915Z,3.10
2022-11-22T03:44:18.929Z,3.20
2022-11-22T03:45:18.948Z,3.10
2022-11-22T03:46:18.958Z,3.20
2022-11-22T03:47:18.979Z,3.10
2022-11-22T03:48:18.995Z,3.00
2022-11-22T03:49:19.009Z,3.30
2022-11-22T03:50:19.026Z,3.40
2022-11-22T03:51:19.043Z,3.10
2022-11-22T03:52:19.056Z,3.70
2022-11-22T03:53:19.098Z,3.50
2022-11-22T03:54:19.087Z,3.30
2022-11-22T03:55:19.105Z,3.50
2022-11-22T03:56:19.122Z,3.00
2022-11-22T03:57:19.136Z,3.30
2022-11-22T03:58:19.150Z,3.10
2022-11-22T03:59:19.170Z,3.40
2022-11-22T04:00:19.184Z,3.30
2022-11-22T04:01:19.275Z,3.30
2022-11-22T04:02:19.217Z,3.20
2022-11-22T04:03:19.231Z,3.20
2022-11-22T04:04:19.247Z,3.40
2022-11-22T04:05:19.261Z,3.40
2022-11-22T04:06:19.276Z,3.30
2022-11-22T04:07:19.335Z,3.40
2022-11-22T04:08:19.307Z,3.00
2022-11-22T04:09:19.417Z,3.30
2022-11-22T04:10:22.433Z,3.30
2022-11-22T04:11:19.359Z,3.10
2022-11-22T04:12:19.370Z,3.00
2022-11-22T04:13:19.387Z,3.40
2022-11-22T04:14:19.404Z,3.10
2022-11-22T04:15:19.419Z,3.30
2022-11-22T04:16:19.438Z,3.30
2022-11-22T04:17:19.453Z,3.40
2022-11-22T04:18:19.465Z,3.30
2022-11-22T04:19:19.485Z,3.30
2022-11-22T04:20:19.498Z,3.10
2022-11-22T04:21:19.513Z,3.20
2022-11-22T04:22:19.536Z,3.20
2022-11-22T04:23:19.548Z,3.10
2022-11-22T04:24:19.559Z,3.30
2022-11-22T04:25:19.602Z,3.50
2022-11-22T04:26:19.590Z,3.50
2022-11-22T04:27:19.726Z,3.20
2022-11-22T04:28:19.625Z,3.30
2022-11-22T04:29:19.640Z,3.50
2022-11-22T04:30:20.824Z,3.50
2022-11-22T04:31:19.673Z,3.50
2022-11-22T04:32:19.689Z,3.40
2022-11-22T04:33:19.704Z,3.50
2022-11-22T04:34:19.719Z,3.40
2022-11-22T04:35:19.734Z,3.50
2022-11-22T04:36:19.752Z,3.10
2022-11-22T04:37:19.763Z,3.30
2022-11-22T04:38:19.778Z,3.30
2022-11-22T04:39:19.799Z,3.60
2022-11-22T04:40:19.811Z,3.50
2022-11-22T04:41:19.848Z,3.50
2022-11-22T04:42:19.844Z,3.40
2022-11-22T04:43:19.859Z,3.50
2022-11-22T04:44:19.877Z,3.70
2022-11-22T04:45:19.891Z,3.70
2022-11-22T04:46:19.907Z,3.80
2022-11-22T04:47:19.922Z,3.60
2022-11-22T04:48:19.937Z,3.40
2022-11-22T04:49:19.952Z,3.10
2022-11-22T04:50:19.969Z,3.80
2022-11-22T04:51:19.988Z,3.80
2022-11-22T04:52:20.000Z,3.50
2022-11-22T04:53:20.015Z,3.90
2022-11-22T04:54:20.027Z,4.00
2022-11-22T04:55:20.044Z,4.00
2022-11-22T04:56:20.064Z,4.00
2022-11-22T04:57:20.099Z,4.10
2022-11-22T04:58:20.093Z,3.90
2022-11-22T04:59:20.108Z,4.00
2022-11-22T05:00:20.125Z,4.10
2022-11-22T05:01:20.226Z,3.90
2022-11-22T05:02:20.156Z,4.00
2022-11-22T05:03:20.173Z,4.20
2022-11-22T05:04:20.188Z,4.00
2022-11-22T05:05:20.200Z,4.00
2022-11-22T05:06:20.216Z,4.00
2022-11-22T05:07:20.315Z,4.20
2022-11-22T05:08:20.254Z,4.10
2022-11-22T05:09:20.267Z,3.80
2022-11-22T05:10:26.040Z,4.00
2022-11-22T05:11:20.298Z,4.00
2022-11-22T05:12:20.311Z,3.90
2022-11-22T05:13:20.352Z,3.90
2022-11-22T05:14:20.340Z,4.20
2022-11-22T05:15:20.358Z,4.00
2022-11-22T05:16:20.376Z,4.20
2022-11-22T05:17:20.390Z,4.10
2022-11-22T05:18:20.410Z,3.90
2022-11-22T05:19:20.422Z,4.30
2022-11-22T05:20:20.444Z,3.80
2022-11-22T05:21:20.452Z,4.10
2022-11-22T05:22:20.465Z,4.10
2022-11-22T05:23:20.484Z,4.10
2022-11-22T05:24:20.500Z,4.00
2022-11-22T05:25:25.258Z,4.00
2022-11-22T05:26:20.526Z,4.10
2022-11-22T05:27:20.543Z,3.90
2022-11-22T05:28:20.559Z,4.00
2022-11-22T05:29:20.605Z,4.00
2022-11-22T05:30:20.593Z,3.90
2022-11-22T05:31:20.605Z,4.20
2022-11-22T05:32:20.624Z,4.10
2022-11-22T05:33:20.635Z,4.30
2022-11-22T05:34:20.655Z,4.20
2022-11-22T05:35:20.669Z,3.90
2022-11-22T05:36:20.683Z,4.20
2022-11-22T05:37:20.698Z,3.70
2022-11-22T05:38:20.715Z,3.90
2022-11-22T05:39:20.728Z,3.90
2022-11-22T05:40:20.747Z,4.30
2022-11-22T05:41:20.761Z,4.30
2022-11-22T05:42:20.783Z,4.10
2022-11-22T05:43:20.790Z,4.30
2022-11-22T05:44:20.809Z,3.90
2022-11-22T05:45:20.847Z,4.10
2022-11-22T05:46:24.391Z,4.20
2022-11-22T05:47:20.857Z,4.10
2022-11-22T05:48:20.872Z,3.90
2022-11-22T05:49:20.883Z,4.20
2022-11-22T05:50:20.903Z,4.10
2022-11-22T05:51:20.928Z,4.30
2022-11-22T05:52:20.931Z,4.00
2022-11-22T05:53:20.950Z,4.00
2022-11-22T05:54:20.965Z,4.20
2022-11-22T05:55:20.984Z,4.40
2022-11-22T05:56:20.999Z,3.90
2022-11-22T05:57:21.009Z,4.10
2022-11-22T05:58:21.022Z,4.20
2022-11-22T05:59:21.042Z,3.80
2022-11-22T06:00:21.055Z,4.00
2022-11-22T06:01:21.094Z,4.10
2022-11-22T06:02:21.179Z,4.30
2022-11-22T06:03:21.101Z,4.10
2022-11-22T06:04:21.119Z,4.20
2022-11-22T06:05:21.137Z,4.20
2022-11-22T06:06:21.178Z,4.10
2022-11-22T06:07:21.212Z,4.20
2022-11-22T06:08:21.197Z,4.30
2022-11-22T06:09:21.224Z,3.80
2022-11-22T06:10:21.208Z,4.00
2022-11-22T06:11:21.225Z,4.10
2022-11-22T06:12:21.239Z,4.00
2022-11-22T06:13:21.259Z,4.40
2022-11-22T06:14:21.274Z,4.30
2022-11-22T06:15:21.286Z,4.00
2022-11-22T06:16:21.303Z,4.30
2022-11-22T06:17:21.335Z,4.30
2022-11-22T06:18:21.335Z,4.30
2022-11-22T06:19:21.351Z,4.50
2022-11-22T06:20:21.363Z,3.90
2022-11-22T06:21:21.382Z,4.60
2022-11-22T06:22:21.395Z,4.20
2022-11-22T06:23:21.413Z,4.70
2022-11-22T06:24:21.425Z,4.30
2022-11-22T06:25:21.444Z,4.20
2022-11-22T06:26:21.460Z,4.30
2022-11-22T06:27:21.473Z,4.30
2022-11-22T06:28:21.485Z,4.40
2022-11-22T06:29:21.504Z,4.30
2022-11-22T06:30:21.520Z,4.40
2022-11-22T06:31:21.533Z,4.20
2022-11-22T06:32:21.549Z,4.30
2022-11-22T06:33:21.587Z,4.20
2022-11-22T06:34:21.578Z,4.50
2022-11-22T06:35:21.595Z,4.10
2022-11-22T06:36:21.609Z,4.10
2022-11-22T06:37:21.624Z,4.20
2022-11-22T06:38:21.640Z,4.40
2022-11-22T06:39:21.655Z,4.20
2022-11-22T06:40:21.675Z,4.30
2022-11-22T06:41:21.689Z,4.40
2022-11-22T06:42:21.701Z,4.30
2022-11-22T06:43:21.715Z,4.10
2022-11-22T06:44:21.731Z,4.30
2022-11-22T06:45:21.752Z,4.10
2022-11-22T06:46:21.762Z,4.20
2022-11-22T06:47:21.781Z,4.30
2022-11-22T06:48:21.793Z,4.10
2022-11-22T06:49:21.829Z,4.30
2022-11-22T06:50:22.148Z,4.50
2022-11-22T06:51:21.842Z,4.10
2022-11-22T06:52:21.857Z,4.20
2022-11-22T06:53:45.679Z,4.20
2022-11-22T06:54:21.887Z,4.50
2022-11-22T06:55:49.227Z,4.00
2022-11-22T06:56:21.918Z,3.90
2022-11-22T06:57:21.935Z,4.00
2022-11-22T06:58:21.945Z,4.10
2022-11-22T06:59:21.962Z,4.10
2022-11-22T07:00:21.975Z,4.20
2022-11-22T07:01:22.062Z,4.40
2022-11-22T07:02:22.009Z,4.00
2022-11-22T07:03:22.023Z,4.10
2022-11-22T07:04:22.041Z,3.90
2022-11-22T07:05:26.321Z,3.90
2022-11-22T07:06:22.072Z,4.00
2022-11-22T07:07:22.140Z,4.10
2022-11-22T07:08:22.101Z,4.20
2022-11-22T07:09:22.112Z,4.10
2022-11-22T07:10:22.127Z,4.10
2022-11-22T07:11:22.148Z,3.70
2022-11-22T07:12:22.158Z,4.00
2022-11-22T07:13:22.175Z,4.00
2022-11-22T07:14:22.193Z,3.90
2022-11-22T07:15:22.208Z,3.90
2022-11-22T07:16:22.222Z,4.00
2022-11-22T07:17:22.238Z,3.90
2022-11-22T07:18:22.249Z,3.80
2022-11-22T07:19:22.264Z,4.10
2022-11-22T07:20:22.286Z,3.80
2022-11-22T07:21:22.321Z,4.00
2022-11-22T07:22:22.311Z,3.90
2022-11-22T07:23:22.326Z,4.10
2022-11-22T07:24:22.344Z,3.90
2022-11-22T07:25:22.360Z,4.00
2022-11-22T07:26:22.371Z,3.90
2022-11-22T07:27:22.390Z,3.90
2022-11-22T07:28:22.410Z,3.70
2022-11-22T07:29:22.420Z,3.90
2022-11-22T07:30:22.436Z,3.80
2022-11-22T07:31:22.450Z,3.90
2022-11-22T07:32:22.464Z,3.80
2022-11-22T07:33:22.481Z,4.10
2022-11-22T07:34:22.497Z,3.80
2022-11-22T07:35:22.509Z,3.70
2022-11-22T07:36:22.524Z,3.60
2022-11-22T07:37:22.563Z,4.00
2022-11-22T07:38:22.555Z,3.50
2022-11-22T07:39:22.569Z,3.70
2022-11-22T07:40:22.588Z,3.80
2022-11-22T07:41:22.616Z,3.90
2022-11-22T07:42:26.215Z,3.60
2022-11-22T07:43:22.631Z,3.50
2022-11-22T07:44:22.648Z,3.60
2022-11-22T07:45:22.660Z,3.70
2022-11-22T07:46:22.675Z,3.50
2022-11-22T07:47:23.206Z,3.50
2022-11-22T07:48:22.713Z,3.70
2022-11-22T07:49:22.721Z,3.90
2022-11-22T07:50:22.738Z,3.40
2022-11-22T07:51:22.760Z,3.30
2022-11-22T07:52:22.766Z,3.50
2022-11-22T07:53:23.138Z,3.70
2022-11-22T07:54:22.801Z,3.40
2022-11-22T07:55:22.818Z,3.80
2022-11-22T07:56:22.834Z,3.40
2022-11-22T07:57:22.842Z,3.80
2022-11-22T07:58:22.862Z,3.50
2022-11-22T07:59:22.876Z,3.60
2022-11-22T08:00:22.905Z,3.80
2022-11-22T08:01:22.952Z,3.60
2022-11-22T08:02:22.922Z,3.60
2022-11-22T08:03:28.557Z,3.10
2022-11-22T08:04:22.952Z,3.60
2022-11-22T08:05:22.967Z,3.50
2022-11-22T08:06:22.982Z,3.70
2022-11-22T08:07:23.067Z,3.30
2022-11-22T08:08:23.013Z,3.40
2022-11-22T08:09:23.146Z,3.60
2022-11-22T08:10:23.040Z,3.20
2022-11-22T08:11:23.055Z,3.20
2022-11-22T08:12:23.073Z,3.40
2022-11-22T08:13:23.087Z,3.60
2022-11-22T08:14:23.104Z,3.50
2022-11-22T08:15:23.118Z,3.60
2022-11-22T08:16:23.135Z,3.70
2022-11-22T08:17:23.145Z,3.70
2022-11-22T08:18:23.163Z,3.30
2022-11-22T08:19:23.176Z,3.60
2022-11-22T08:20:23.195Z,3.60
2022-11-22T08:21:23.209Z,3.50
2022-11-22T08:22:23.228Z,3.50
2022-11-22T08:23:23.237Z,3.60
2022-11-22T08:24:23.255Z,3.30
2022-11-22T08:25:23.389Z,3.60
2022-11-22T08:26:23.283Z,3.80
2022-11-22T08:27:23.300Z,3.30
2022-11-22T08:28:23.311Z,3.50
2022-11-22T08:29:23.329Z,3.60
2022-11-22T08:30:23.343Z,3.50
2022-11-22T08:31:23.361Z,3.40
2022-11-22T08:32:23.371Z,3.50
2022-11-22T08:33:23.386Z,3.40
2022-11-22T08:34:23.401Z,3.50
2022-11-22T08:35:23.420Z,3.10
2022-11-22T08:36:23.434Z,3.70
2022-11-22T08:37:23.450Z,3.60
2022-11-22T08:38:23.462Z,3.60
2022-11-22T08:39:23.480Z,3.50
2022-11-22T08:40:23.493Z,3.30
2022-11-22T08:41:23.641Z,3.40
2022-11-22T08:42:23.523Z,3.60
2022-11-22T08:43:23.538Z,3.60
2022-11-22T08:44:23.556Z,3.60
2022-11-22T08:45:23.573Z,3.30
2022-11-22T08:46:23.586Z,3.20
2022-11-22T08:47:23.597Z,3.30
2022-11-22T08:48:23.616Z,3.40
2022-11-22T08:49:23.630Z,3.50
2022-11-22T08:50:23.723Z,3.60
2022-11-22T08:51:23.660Z,3.40
2022-11-22T08:52:23.672Z,3.20
2022-11-22T08:53:23.689Z,3.60
2022-11-22T08:54:23.709Z,3.30
2022-11-22T08:55:23.717Z,3.40
2022-11-22T08:56:23.736Z,3.60
2022-11-22T08:57:23.871Z,3.30
2022-11-22T08:58:23.767Z,3.40
2022-11-22T08:59:23.859Z,3.50
2022-11-22T09:00:26.418Z,3.40
2022-11-22T09:01:23.933Z,3.40
2022-11-22T09:02:23.827Z,3.20
2022-11-22T09:03:23.842Z,3.20
2022-11-22T09:04:23.856Z,3.50
2022-11-22T09:05:23.937Z,3.50
2022-11-22T09:08:24.116Z,3.10
2022-11-22T09:09:37.414Z,3.20
2022-11-22T09:10:23.948Z,3.40
2022-11-22T09:11:23.959Z,3.10
2022-11-22T09:12:23.978Z,3.50
2022-11-22T09:13:24.114Z,3.70
2022-11-22T09:14:24.007Z,3.40
2022-11-22T09:15:24.024Z,3.60
2022-11-22T09:16:24.037Z,3.40
2022-11-22T09:17:24.053Z,3.50
2022-11-22T09:18:24.066Z,3.50
2022-11-22T09:19:24.079Z,3.30
2022-11-22T09:20:24.099Z,3.70
2022-11-22T09:21:24.113Z,3.60
2022-11-22T09:22:28.410Z,3.50
2022-11-22T09:23:24.142Z,3.30
2022-11-22T09:24:24.159Z,3.20
2022-11-22T09:25:24.176Z,3.30
2022-11-22T09:26:24.191Z,3.70
2022-11-22T09:27:24.201Z,3.30
2022-11-22T09:28:24.218Z,3.50
2022-11-22T09:29:24.349Z,3.40
2022-11-22T09:30:24.248Z,3.40
2022-11-22T09:31:24.258Z,3.40
2022-11-22T09:32:26.200Z,3.40
2022-11-22T09:33:24.295Z,3.30
2022-11-22T09:34:24.310Z,3.30
2022-11-22T09:35:24.334Z,3.50
2022-11-22T09:36:24.338Z,3.50
2022-11-22T09:37:24.351Z,3.50
2022-11-22T09:38:24.369Z,3.30
2022-11-22T09:39:24.381Z,3.50
2022-11-22T09:40:24.397Z,3.40
2022-11-22T09:41:24.413Z,3.10
2022-11-22T09:42:24.429Z,3.50
2022-11-22T09:43:24.445Z,3.20
2022-11-22T09:44:24.458Z,3.50
2022-11-22T09:45:24.590Z,3.50
2022-11-22T09:46:24.488Z,3.40
2022-11-22T09:47:24.502Z,3.40
2022-11-22T09:48:24.518Z,3.40
2022-11-22T09:49:24.532Z,3.70
2022-11-22T09:50:24.545Z,3.20
2022-11-22T09:51:24.560Z,3.20
2022-11-22T09:52:24.576Z,3.30
2022-11-22T09:53:24.590Z,3.40
2022-11-22T09:54:24.607Z,3.30
2022-11-22T09:55:24.682Z,3.50
2022-11-22T09:56:24.635Z,3.40
2022-11-22T09:57:24.659Z,3.30
2022-11-22T09:58:24.678Z,3.40
2022-11-22T09:59:24.688Z,3.40
2022-11-22T10:00:24.704Z,3.60
2022-11-22T10:01:24.872Z,3.30
2022-11-22T10:02:24.727Z,3.40
2022-11-22T10:03:24.742Z,3.20
2022-11-22T10:04:24.759Z,3.30
2022-11-22T10:05:24.771Z,3.40
2022-11-22T10:06:24.788Z,3.80
2022-11-22T10:07:24.847Z,3.40
2022-11-22T10:08:24.817Z,3.30
2022-11-22T10:09:24.833Z,3.50
2022-11-22T10:10:24.848Z,3.30
2022-11-22T10:11:24.862Z,3.60
2022-11-22T10:12:24.877Z,3.30
2022-11-22T10:13:24.894Z,3.70
2022-11-22T10:14:24.906Z,3.40
2022-11-22T10:15:24.921Z,3.00
2022-11-22T10:16:24.940Z,3.50
2022-11-22T10:17:25.067Z,3.30
2022-11-22T10:18:24.966Z,3.40
2022-11-22T10:19:24.982Z,3.40
2022-11-22T10:20:25.003Z,3.30
2022-11-22T10:21:25.015Z,3.10
2022-11-22T10:22:25.026Z,3.30
2022-11-22T10:23:25.042Z,3.30
2022-11-22T10:24:25.057Z,3.40
2022-11-22T10:25:25.073Z,3.30
2022-11-22T10:26:25.088Z,3.40
2022-11-22T10:27:25.107Z,3.30
2022-11-22T10:28:25.116Z,3.30
2022-11-22T10:29:25.134Z,3.30
2022-11-22T10:30:25.146Z,3.50
2022-11-22T10:31:25.160Z,3.30
2022-11-22T10:32:25.178Z,3.30
2022-11-22T10:33:25.311Z,3.20
2022-11-22T10:34:25.208Z,3.20
2022-11-22T10:35:25.224Z,3.30
2022-11-22T10:36:25.242Z,3.30
2022-11-22T10:37:25.254Z,3.30
2022-11-22T10:38:25.268Z,3.50
2022-11-22T10:39:27.919Z,3.40
2022-11-22T10:40:25.300Z,3.20
2022-11-22T10:41:25.312Z,3.30
2022-11-22T10:42:25.330Z,3.60
2022-11-22T10:43:25.344Z,3.70
2022-11-22T10:44:25.360Z,3.40
2022-11-22T10:45:25.372Z,3.70
2022-11-22T10:46:25.391Z,3.30
2022-11-22T10:47:27.286Z,3.20
2022-11-22T10:48:25.415Z,3.70
2022-11-22T10:49:25.554Z,3.80
2022-11-22T10:50:25.450Z,3.30
2022-11-22T10:51:25.465Z,3.40
2022-11-22T10:52:25.485Z,3.20
2022-11-22T10:53:25.495Z,3.30
2022-11-22T10:54:25.508Z,3.70
2022-11-22T10:55:25.522Z,3.50
2022-11-22T10:56:25.538Z,3.40
2022-11-22T10:57:25.554Z,3.70
2022-11-22T10:58:25.565Z,3.30
2022-11-22T10:59:28.801Z,3.50
2022-11-22T11:00:25.599Z,3.00
2022-11-22T11:01:25.678Z,3.40
2022-11-22T11:02:25.626Z,3.50
2022-11-22T11:03:25.642Z,3.50
2022-11-22T11:04:25.662Z,3.20
2022-11-22T11:05:25.788Z,3.70
2022-11-22T11:06:37.789Z,3.10
2022-11-22T11:07:25.767Z,3.20
2022-11-22T11:08:47.773Z,3.40
2022-11-22T11:10:09.569Z,3.10
2022-11-22T11:10:33.746Z,3.40
2022-11-22T11:11:25.778Z,3.20
2022-11-22T11:12:25.781Z,3.30
2022-11-22T11:13:25.796Z,3.30
2022-11-22T11:14:25.809Z,3.40
2022-11-22T11:15:25.822Z,3.40
2022-11-22T11:16:25.840Z,3.30
2022-11-22T11:17:25.852Z,3.30
2022-11-22T11:21:26.033Z,3.20
2022-11-22T11:22:50.437Z,3.00
2022-11-22T11:23:25.943Z,3.50
2022-11-22T11:24:25.961Z,3.20
2022-11-22T11:25:25.976Z,3.30
2022-11-22T11:26:25.988Z,3.30
2022-11-22T11:27:26.005Z,3.40
2022-11-22T11:28:26.020Z,3.50
2022-11-22T11:29:26.043Z,3.40
2022-11-22T11:30:26.049Z,3.40
2022-11-22T11:31:26.068Z,3.00
2022-11-22T11:32:26.083Z,3.10
2022-11-22T11:33:26.103Z,3.20
2022-11-22T11:34:26.110Z,3.20
2022-11-22T11:35:26.124Z,3.30
2022-11-22T11:36:26.142Z,3.30
2022-11-22T11:37:26.276Z,3.20
2022-11-22T11:38:26.169Z,3.20
2022-11-22T11:39:26.185Z,3.10
2022-11-22T11:40:26.200Z,3.30
2022-11-22T11:41:26.219Z,3.30
2022-11-22T11:42:26.233Z,3.20
2022-11-22T11:43:26.245Z,3.20
2022-11-22T11:44:26.263Z,3.20
2022-11-22T11:45:26.277Z,3.10
2022-11-22T11:46:26.311Z,3.00
2022-11-22T11:47:26.309Z,3.10
2022-11-22T11:48:26.321Z,3.10
2022-11-22T11:49:26.341Z,3.10
2022-11-22T11:50:26.354Z,3.20
2022-11-22T11:51:26.371Z,3.00
2022-11-22T11:52:26.382Z,3.00
2022-11-22T11:53:26.511Z,3.10
2022-11-22T11:54:26.422Z,3.20
2022-11-22T11:55:26.429Z,3.30
2022-11-22T11:56:26.450Z,3.40
2022-11-22T11:57:26.455Z,3.20
2022-11-22T11:58:26.477Z,3.20
2022-11-22T11:59:26.505Z,3.40
2022-11-22T12:00:26.507Z,3.10
2022-11-22T12:01:26.522Z,3.20
2022-11-22T12:02:26.575Z,2.90
2022-11-22T12:03:26.546Z,3.10
2022-11-22T12:04:26.578Z,3.00
2022-11-22T12:05:26.591Z,3.00
2022-11-22T12:06:26.604Z,3.40
2022-11-22T12:07:26.646Z,3.20
2022-11-22T12:08:26.626Z,3.10
2022-11-22T12:09:26.776Z,3.20
2022-11-22T12:10:26.654Z,3.00
2022-11-22T12:11:26.673Z,3.20
2022-11-22T12:12:26.689Z,3.00
2022-11-22T12:13:26.702Z,3.10
2022-11-22T12:14:42.742Z,3.10
2022-11-22T12:15:26.736Z,3.00
2022-11-22T12:16:26.746Z,3.20
2022-11-22T12:17:26.767Z,3.00
2022-11-22T12:18:26.776Z,2.90
2022-11-22T12:19:26.791Z,3.00
2022-11-22T12:20:26.806Z,3.00
2022-11-22T12:21:26.822Z,3.00
2022-11-22T12:22:48.099Z,2.90
2022-11-22T12:23:26.855Z,3.10
2022-11-22T12:24:48.411Z,3.20
2022-11-22T12:25:34.716Z,3.20
2022-11-22T12:26:26.897Z,3.00
2022-11-22T12:27:26.917Z,2.80
2022-11-22T12:28:26.932Z,2.90
2022-11-22T12:29:26.947Z,3.10
2022-11-22T12:30:26.958Z,3.10
2022-11-22T12:31:26.983Z,2.90
2022-11-22T12:32:27.397Z,3.00
2022-11-22T12:33:27.008Z,3.20
2022-11-22T12:34:27.017Z,3.00
2022-11-22T12:35:27.033Z,3.00
2022-11-22T12:36:32.327Z,2.80
2022-11-22T12:37:27.066Z,3.00
2022-11-22T12:38:27.081Z,2.90
2022-11-22T12:39:27.095Z,2.80
2022-11-22T12:40:27.114Z,3.20
2022-11-22T12:41:27.239Z,3.10
2022-11-22T12:42:27.141Z,3.00
2022-11-22T12:43:27.161Z,2.90
2022-11-22T12:44:27.174Z,3.30
2022-11-22T12:45:27.193Z,3.00
2022-11-22T12:46:27.203Z,2.80
2022-11-22T12:47:27.221Z,2.90
2022-11-22T12:48:27.539Z,2.80
2022-11-22T12:49:27.253Z,2.90
2022-11-22T12:50:27.269Z,2.80
2022-11-22T12:51:27.295Z,2.80
2022-11-22T12:52:27.301Z,3.10
2022-11-22T12:53:27.311Z,2.80
2022-11-22T12:54:27.326Z,2.90
2022-11-22T12:55:27.348Z,2.80
2022-11-22T12:56:32.959Z,2.80
2022-11-22T12:57:27.487Z,2.90
2022-11-22T12:58:27.589Z,2.80
2022-11-22T12:59:27.401Z,2.80
2022-11-22T13:00:27.419Z,2.80
2022-11-22T13:01:27.467Z,2.80
2022-11-22T13:02:27.447Z,2.80
2022-11-22T13:03:27.466Z,3.00
2022-11-22T13:04:27.516Z,3.00
2022-11-22T13:05:27.496Z,2.90
2022-11-22T13:06:27.509Z,2.80
2022-11-22T13:07:27.607Z,2.80
2022-11-22T13:08:27.542Z,2.80
2022-11-22T13:09:27.575Z,2.70
2022-11-22T13:10:27.572Z,2.80
2022-11-22T13:11:27.587Z,3.00
2022-11-22T13:12:27.604Z,2.80
2022-11-22T13:13:27.749Z,2.60
2022-11-22T13:14:27.631Z,2.80
2022-11-22T13:15:27.645Z,2.80
2022-11-22T13:16:27.665Z,2.80
2022-11-22T13:17:27.678Z,2.80
2022-11-22T13:18:27.692Z,2.60
2022-11-22T13:19:27.708Z,2.90
2022-11-22T13:20:27.727Z,2.80
2022-11-22T13:21:27.744Z,2.70
2022-11-22T13:22:27.753Z,2.60
2022-11-22T13:23:27.769Z,2.90